UHSS Airport Information

Runway Information
Runway 01 Length 11155 ft width 148 ft
Elevation 44 ft Threshold 0 ft Heading 1
Runway 19 Length 11155 ft Width 148 ft
Elevation 49 ft Threshold 2080 ft Heading 181
Airport Frequencies
Type GCA Name RDR Frequency 120.6 MHZ
Type TWR Name TWR Frequency 120.6 MHZ
Airport Navaids
Type NDB Name Khomutovo Frequency 505 KHZ
Type NDB Name Khomutovo Frequency 505 KHZ
Airport Weather Information & NOTAM
ADDS - METARS form results

(0014 UTC 30 March 2020)
Data provider http://aviationweather.gov/metar/data/
 
METAR text: UHSS 300000Z 18006MPS 9999 FEW033 04/M01 Q1016 R19/150065 NOSIG RMK MT OBSC QFE760/1014
Conditions at: UHSS (JUZNO-SAHALINSK , RU) observed 0000 UTC 30 March 2020
Temperature: 4.0°C (39°F)
Dewpoint: -1.0°C (30°F) [RH = 70%]
Pressure (altimeter): 30.00 inches Hg (1016.0 mb)
Winds: from the S (180 degrees) at 14 MPH (12 knots; 6.2 m/s)
Visibility: 6 or more miles (10+ km)
Ceiling: at least 12,000 feet AGL
Clouds: few clouds at 3300 feet AGL
Weather: no significant weather observed at this time

METAR text: UHSS 292330Z 19005MPS 9999 FEW026 03/M01 Q1016 R01/150065 NOSIG RMK MT OBSC QFE761/1014
Conditions at: UHSS (JUZNO-SAHALINSK , RU) observed 2330 UTC 29 March 2020
Temperature: 3.0°C (37°F)
Dewpoint: -1.0°C (30°F) [RH = 75%]
Pressure (altimeter): 30.00 inches Hg (1016.0 mb)
Winds: from the S (190 degrees) at 12 MPH (10 knots; 5.1 m/s)
Visibility: 6 or more miles (10+ km)
Ceiling: at least 12,000 feet AGL
Clouds: few clouds at 2600 feet AGL
Weather: no significant weather observed at this time

Forecast for: UHSS (JUZNO-SAHALINSK , RU)
Text: TAF UHSS 292300Z 3000/3106 20007G12MPS 9999 SCT030CB
Forecast period: 0000 to 0900 UTC 30 March 2020
Forecast type: FROM: standard forecast or significant change
Winds: from the SSW (200 degrees) at 16 MPH (14 knots; 7.2 m/s)
gusting to 26 MPH (23 knots; 11.8 m/s)
Visibility: 6 or more miles 10+ km)
Ceiling: at least 12,000 feet AGL
Clouds: scattered clouds at 3000 feet AGL
Weather: no significant weather forecast for this period
Text: BECMG 3009/3011 20003MPS
Forecast period: 0900 UTC 30 March 2020 to 0600 UTC 31 March 2020
Forecast type: BECOMING: Conditions expected to become as follows by 1100 UTC 30 March 2020
Winds: from the SSW (200 degrees) at 7 MPH (6 knots; 3.1 m/s)
Visibility: 6 or more miles 10+ km)
Ceiling: at least 12,000 feet AGL
Clouds: scattered clouds at 3000 feet AGL
Weather: no significant weather forecast for this period